createdAt,value
2018-09-22T00:00:54.854Z,14.28
2018-09-22T00:01:54.869Z,14.37
2018-09-22T00:02:54.891Z,14.29
2018-09-22T00:03:54.914Z,14.22
2018-09-22T00:04:54.924Z,14.17
2018-09-22T00:05:54.947Z,14.17
2018-09-22T00:06:54.966Z,14.22
2018-09-22T00:07:55.010Z,13.97
2018-09-22T00:08:55.000Z,14.05
2018-09-22T00:09:55.022Z,13.99
2018-09-22T00:10:55.032Z,14.15
2018-09-22T00:11:55.051Z,14.07
2018-09-22T00:12:55.064Z,14.17
2018-09-22T00:13:55.084Z,14.18
2018-09-22T00:14:55.104Z,14.28
2018-09-22T00:15:55.130Z,14.30
2018-09-22T00:16:55.157Z,14.15
2018-09-22T00:17:55.157Z,14.18
2018-09-22T00:18:55.170Z,14.29
2018-09-22T00:19:55.188Z,14.30
2018-09-22T00:20:55.207Z,14.45
2018-09-22T00:21:55.264Z,14.44
2018-09-22T00:22:55.246Z,14.51
2018-09-22T00:23:55.260Z,14.53
2018-09-22T00:24:55.276Z,14.51
2018-09-22T00:25:55.294Z,14.55
2018-09-22T00:26:55.310Z,14.41
2018-09-22T00:27:55.330Z,14.43
2018-09-22T00:28:55.354Z,14.44
2018-09-22T00:29:55.363Z,14.35
2018-09-22T00:30:55.384Z,14.37
2018-09-22T00:31:55.400Z,14.33
2018-09-22T00:32:55.421Z,14.53
2018-09-22T00:33:55.436Z,14.47
2018-09-22T00:34:55.455Z,14.40
2018-09-22T00:35:55.475Z,14.32
2018-09-22T00:36:55.492Z,14.48
2018-09-22T00:37:55.506Z,14.54
2018-09-22T00:38:55.524Z,14.59
2018-09-22T00:39:55.544Z,14.47
2018-09-22T00:40:55.559Z,14.50
2018-09-22T00:41:55.576Z,14.37
2018-09-22T00:42:55.596Z,14.55
2018-09-22T00:43:55.607Z,14.43
2018-09-22T00:44:55.629Z,14.51
2018-09-22T00:45:55.647Z,14.43
2018-09-22T00:46:55.662Z,14.45
2018-09-22T00:47:55.680Z,14.63
2018-09-22T00:48:55.698Z,14.60
2018-09-22T00:49:55.715Z,14.51
2018-09-22T00:50:55.734Z,14.58
2018-09-22T00:51:55.755Z,14.47
2018-09-22T00:52:55.769Z,14.33
2018-09-22T00:53:55.798Z,14.29
2018-09-22T00:54:55.812Z,14.23
2018-09-22T00:55:55.821Z,14.33
2018-09-22T00:56:55.839Z,14.45
2018-09-22T00:57:55.862Z,14.44
2018-09-22T00:58:55.890Z,14.53
2018-09-22T00:59:55.892Z,14.23
2018-09-22T01:00:55.930Z,14.18
2018-09-22T01:01:55.925Z,14.20
2018-09-22T01:02:55.947Z,14.30
2018-09-22T01:03:55.978Z,14.26
2018-09-22T01:04:55.986Z,14.35
2018-09-22T01:05:55.999Z,14.53
2018-09-22T01:06:56.024Z,14.48
2018-09-22T01:07:56.034Z,14.28
2018-09-22T01:08:56.051Z,14.41
2018-09-22T01:09:56.084Z,14.23
2018-09-22T01:10:56.097Z,14.15
2018-09-22T01:11:56.109Z,14.26
2018-09-22T01:12:56.129Z,14.29
2018-09-22T01:13:56.140Z,14.25
2018-09-22T01:14:56.157Z,14.20
2018-09-22T01:15:56.207Z,14.28
2018-09-22T01:16:56.193Z,14.22
2018-09-22T01:17:56.209Z,14.23
2018-09-22T01:18:56.228Z,14.44
2018-09-22T01:19:56.249Z,14.48
2018-09-22T01:20:56.265Z,14.45
2018-09-22T01:21:56.280Z,14.54
2018-09-22T01:22:56.304Z,14.60
2018-09-22T01:23:56.314Z,14.68
2018-09-22T01:24:56.337Z,14.43
2018-09-22T01:25:56.355Z,14.23
2018-09-22T01:26:56.368Z,14.26
2018-09-22T01:27:56.392Z,14.26
2018-09-22T01:28:56.404Z,14.20
2018-09-22T01:29:56.424Z,14.29
2018-09-22T01:30:56.443Z,14.22
2018-09-22T01:31:56.461Z,14.20
2018-09-22T01:32:56.473Z,14.26
2018-09-22T01:33:56.490Z,14.33
2018-09-22T01:34:56.509Z,14.44
2018-09-22T01:35:56.528Z,14.36
2018-09-22T01:36:56.545Z,14.26
2018-09-22T01:37:56.562Z,14.28
2018-09-22T01:38:56.583Z,14.25
2018-09-22T01:39:56.602Z,14.23
2018-09-22T01:40:56.627Z,14.10
2018-09-22T01:41:56.633Z,14.08
2018-09-22T01:42:56.660Z,14.08
2018-09-22T01:43:56.668Z,14.05
2018-09-22T01:44:56.687Z,14.12
2018-09-22T01:45:56.705Z,14.22
2018-09-22T01:46:56.722Z,13.97
2018-09-22T01:47:56.740Z,13.97
2018-09-22T01:48:56.760Z,14.03
2018-09-22T01:49:56.795Z,13.97
2018-09-22T01:50:56.789Z,13.85
2018-09-22T01:51:56.813Z,13.96
2018-09-22T01:52:56.832Z,13.92
2018-09-22T01:53:56.843Z,13.87
2018-09-22T01:54:56.870Z,14.11
2018-09-22T01:55:56.884Z,13.99
2018-09-22T01:56:56.905Z,14.07
2018-09-22T01:57:56.925Z,13.97
2018-09-22T01:58:56.932Z,13.97
2018-09-22T01:59:56.954Z,14.14
2018-09-22T02:00:56.969Z,13.93
2018-09-22T02:01:56.987Z,13.89
2018-09-22T02:02:57.013Z,13.83
2018-09-22T02:03:57.028Z,13.77
2018-09-22T02:04:57.035Z,13.74
2018-09-22T02:05:57.062Z,13.79
2018-09-22T02:06:57.090Z,13.68
2018-09-22T02:07:57.087Z,13.83
2018-09-22T02:08:57.105Z,13.72
2018-09-22T02:09:57.128Z,13.72
2018-09-22T02:10:57.141Z,13.59
2018-09-22T02:11:57.156Z,13.65
2018-09-22T02:12:57.177Z,13.59
2018-09-22T02:13:57.193Z,13.49
2018-09-22T02:14:57.218Z,13.52
2018-09-22T02:15:57.230Z,13.63
2018-09-22T02:16:57.246Z,13.50
2018-09-22T02:17:57.263Z,13.57
2018-09-22T02:18:57.282Z,13.56
2018-09-22T02:19:57.305Z,13.59
2018-09-22T02:20:57.321Z,13.52
2018-09-22T02:21:57.336Z,13.54
2018-09-22T02:22:57.352Z,13.50
2018-09-22T02:23:57.371Z,13.53
2018-09-22T02:24:57.382Z,13.54
2018-09-22T02:25:57.406Z,13.53
2018-09-22T02:26:57.415Z,13.56
2018-09-22T02:27:57.436Z,13.62
2018-09-22T02:28:57.449Z,13.47
2018-09-22T02:29:57.471Z,13.56
2018-09-22T02:30:57.488Z,13.37
2018-09-22T02:31:57.505Z,13.31
2018-09-22T02:32:57.524Z,13.33
2018-09-22T02:33:57.545Z,13.50
2018-09-22T02:34:57.562Z,13.44
2018-09-22T02:35:57.585Z,13.49
2018-09-22T02:36:57.589Z,13.47
2018-09-22T02:37:57.612Z,13.38
2018-09-22T02:38:57.628Z,13.46
2018-09-22T02:39:57.642Z,13.41
2018-09-22T02:40:57.665Z,13.49
2018-09-22T02:41:57.686Z,13.39
2018-09-22T02:42:57.700Z,13.57
2018-09-22T02:43:57.714Z,13.42
2018-09-22T02:44:57.733Z,13.42
2018-09-22T02:45:57.744Z,13.30
2018-09-22T02:46:57.763Z,13.41
2018-09-22T02:47:57.784Z,13.39
2018-09-22T02:48:57.810Z,13.44
2018-09-22T02:49:57.819Z,13.42
2018-09-22T02:50:57.833Z,13.47
2018-09-22T02:51:57.848Z,13.37
2018-09-22T02:52:57.868Z,13.41
2018-09-22T02:53:57.885Z,13.33
2018-09-22T02:54:57.907Z,13.37
2018-09-22T02:55:57.920Z,13.33
2018-09-22T02:56:57.938Z,13.33
2018-09-22T02:57:57.956Z,13.39
2018-09-22T02:58:57.976Z,13.44
2018-09-22T02:59:57.987Z,13.31
2018-09-22T03:00:58.006Z,13.37
2018-09-22T03:01:58.024Z,13.44
2018-09-22T03:02:58.042Z,13.57
2018-09-22T03:03:58.081Z,13.52
2018-09-22T03:04:58.080Z,13.31
2018-09-22T03:05:58.096Z,13.38
2018-09-22T03:06:58.113Z,13.47
2018-09-22T03:07:58.125Z,13.37
2018-09-22T03:08:58.153Z,13.25
2018-09-22T03:09:58.163Z,13.33
2018-09-22T03:10:58.176Z,13.30
2018-09-22T03:11:58.198Z,13.37
2018-09-22T03:12:58.219Z,13.31
2018-09-22T03:13:58.230Z,13.22
2018-09-22T03:14:58.245Z,13.33
2018-09-22T03:15:58.266Z,13.13
2018-09-22T03:16:58.282Z,13.25
2018-09-22T03:17:58.296Z,13.27
2018-09-22T03:18:58.315Z,13.25
2018-09-22T03:19:58.330Z,13.25
2018-09-22T03:20:58.354Z,13.30
2018-09-22T03:21:58.375Z,13.41
2018-09-22T03:22:58.387Z,13.42
2018-09-22T03:23:58.399Z,13.38
2018-09-22T03:24:58.416Z,13.35
2018-09-22T03:25:58.438Z,13.42
2018-09-22T03:26:58.448Z,13.47
2018-09-22T03:27:58.470Z,13.33
2018-09-22T03:28:58.495Z,13.49
2018-09-22T03:29:58.505Z,13.47
2018-09-22T03:30:58.523Z,13.27
2018-09-22T03:31:58.538Z,13.25
2018-09-22T03:32:58.613Z,13.46
2018-09-22T03:33:58.583Z,13.54
2018-09-22T03:34:58.590Z,13.49
2018-09-22T03:35:58.606Z,13.39
2018-09-22T03:36:58.624Z,13.31
2018-09-22T03:37:58.642Z,13.38
2018-09-22T03:38:58.659Z,13.31
2018-09-22T03:39:58.688Z,13.30
2018-09-22T03:40:58.699Z,13.46
2018-09-22T03:41:58.712Z,13.37
2018-09-22T03:42:58.725Z,13.52
2018-09-22T03:43:58.743Z,13.52
2018-09-22T03:44:58.768Z,13.65
2018-09-22T03:45:58.791Z,13.62
2018-09-22T03:46:58.803Z,13.54
2018-09-22T03:47:58.812Z,13.67
2018-09-22T03:48:58.843Z,13.53
2018-09-22T03:49:58.847Z,13.33
2018-09-22T03:50:58.875Z,13.50
2018-09-22T03:51:58.883Z,13.57
2018-09-22T03:52:58.901Z,13.44
2018-09-22T03:53:58.911Z,13.39
2018-09-22T03:54:58.930Z,13.38
2018-09-22T03:55:58.948Z,13.31
2018-09-22T03:56:58.970Z,13.33
2018-09-22T03:57:58.992Z,13.39
2018-09-22T03:58:58.998Z,13.37
2018-09-22T03:59:59.028Z,13.31
2018-09-22T04:00:59.041Z,13.44
2018-09-22T04:01:59.068Z,13.35
2018-09-22T04:02:59.074Z,13.23
2018-09-22T04:03:59.093Z,13.20
2018-09-22T04:04:59.110Z,13.39
2018-09-22T04:05:59.125Z,13.42
2018-09-22T04:06:59.143Z,13.33
2018-09-22T04:07:59.160Z,13.31
2018-09-22T04:08:59.172Z,13.47
2018-09-22T04:09:59.191Z,13.47
2018-09-22T04:10:59.208Z,13.54
2018-09-22T04:11:59.236Z,13.53
2018-09-22T04:12:59.243Z,13.71
2018-09-22T04:13:59.257Z,13.54
2018-09-22T04:14:59.272Z,13.62
2018-09-22T04:15:59.319Z,13.60
2018-09-22T04:16:59.306Z,13.62
2018-09-22T04:17:59.330Z,13.63
2018-09-22T04:18:59.347Z,13.62
2018-09-22T04:19:59.364Z,13.57
2018-09-22T04:20:59.376Z,13.47
2018-09-22T04:21:59.394Z,13.28
2018-09-22T04:22:59.411Z,13.31
2018-09-22T04:23:59.429Z,13.27
2018-09-22T04:24:59.446Z,13.35
2018-09-22T04:25:59.469Z,13.33
2018-09-22T04:26:59.476Z,13.31
2018-09-22T04:27:59.504Z,13.38
2018-09-22T04:28:59.519Z,13.33
2018-09-22T04:29:59.537Z,13.23
2018-09-22T04:30:59.563Z,13.38
2018-09-22T04:31:59.568Z,13.23
2018-09-22T04:32:59.590Z,13.46
2018-09-22T04:33:59.603Z,13.47
2018-09-22T04:34:59.623Z,13.31
2018-09-22T04:35:59.639Z,13.31
2018-09-22T04:36:59.655Z,13.28
2018-09-22T04:37:59.674Z,13.30
2018-09-22T04:38:59.721Z,13.28
2018-09-22T04:39:59.713Z,13.53
2018-09-22T04:40:59.721Z,13.49
2018-09-22T04:41:59.743Z,13.50
2018-09-22T04:42:59.764Z,13.63
2018-09-22T04:43:59.775Z,13.59
2018-09-22T04:44:59.805Z,13.62
2018-09-22T04:45:59.813Z,13.47
2018-09-22T04:46:59.836Z,13.49
2018-09-22T04:47:59.847Z,13.42
2018-09-22T04:48:59.866Z,13.35
2018-09-22T04:49:59.883Z,13.46
2018-09-22T04:50:59.899Z,13.53
2018-09-22T04:51:59.914Z,13.49
2018-09-22T04:52:59.931Z,13.59
2018-09-22T04:53:59.953Z,13.62
2018-09-22T04:54:59.967Z,13.74
2018-09-22T04:55:59.979Z,13.74
2018-09-22T04:57:00.004Z,13.56
2018-09-22T04:58:00.037Z,13.71
2018-09-22T04:59:00.036Z,13.62
2018-09-22T05:00:00.058Z,13.59
2018-09-22T05:01:00.070Z,13.46
2018-09-22T05:02:00.086Z,13.52
2018-09-22T05:03:00.101Z,13.49
2018-09-22T05:04:00.123Z,13.37
2018-09-22T05:05:00.133Z,13.33
2018-09-22T05:06:00.154Z,13.42
2018-09-22T05:07:00.173Z,13.59
2018-09-22T05:08:00.191Z,13.74
2018-09-22T05:09:00.210Z,13.71
2018-09-22T05:10:00.222Z,13.59
2018-09-22T05:11:00.237Z,13.59
2018-09-22T05:12:00.262Z,13.74
2018-09-22T05:13:00.276Z,13.83
2018-09-22T05:14:00.290Z,13.86
2018-09-22T05:15:00.309Z,13.86
2018-09-22T05:16:00.326Z,13.85
2018-09-22T05:17:00.374Z,13.81
2018-09-22T05:18:00.360Z,13.96
2018-09-22T05:19:00.382Z,14.10
2018-09-22T05:20:00.396Z,14.20
2018-09-22T05:21:00.415Z,14.20
2018-09-22T05:22:00.435Z,14.23
2018-09-22T05:23:00.444Z,14.05
2018-09-22T05:24:00.464Z,14.00
2018-09-22T05:25:00.491Z,13.83
2018-09-22T05:26:00.499Z,13.97
2018-09-22T05:27:00.526Z,13.92
2018-09-22T05:28:00.534Z,13.95
2018-09-22T05:29:00.551Z,13.81
2018-09-22T05:30:00.570Z,14.03
2018-09-22T05:31:00.594Z,14.10
2018-09-22T05:32:00.609Z,14.14
2018-09-22T05:33:00.624Z,14.22
2018-09-22T05:34:00.641Z,14.11
2018-09-22T05:35:00.665Z,14.04
2018-09-22T05:36:00.680Z,14.15
2018-09-22T05:37:00.702Z,14.15
2018-09-22T05:38:00.716Z,14.20
2018-09-22T05:39:00.730Z,14.22
2018-09-22T05:40:00.748Z,14.53
2018-09-22T05:41:00.767Z,14.53
2018-09-22T05:42:00.783Z,14.73
2018-09-22T05:43:00.797Z,14.63
2018-09-22T05:44:00.816Z,14.53
2018-09-22T05:45:00.838Z,14.62
2018-09-22T05:46:00.853Z,14.69
2018-09-22T05:47:00.873Z,14.70
2018-09-22T05:48:00.886Z,14.86
2018-09-22T05:49:00.917Z,14.99
2018-09-22T05:50:00.930Z,15.15
2018-09-22T05:51:00.951Z,15.18
2018-09-22T05:52:00.964Z,15.00
2018-09-22T05:53:00.976Z,15.00
2018-09-22T05:54:01.005Z,14.99
2018-09-22T05:55:01.018Z,14.81
2018-09-22T05:56:01.040Z,14.79
2018-09-22T05:57:01.075Z,15.14
2018-09-22T05:58:01.090Z,15.22
2018-09-22T05:59:01.093Z,15.31
2018-09-22T06:00:01.134Z,15.31
2018-09-22T06:01:01.130Z,15.33
2018-09-22T06:02:01.144Z,15.31
2018-09-22T06:03:01.158Z,15.33
2018-09-22T06:04:01.288Z,15.15
2018-09-22T06:05:01.213Z,15.15
2018-09-22T06:06:01.211Z,15.37
2018-09-22T06:07:01.241Z,15.42
2018-09-22T06:08:01.263Z,15.64
2018-09-22T06:09:01.264Z,15.51
2018-09-22T06:10:01.284Z,15.70
2018-09-22T06:11:01.314Z,15.84
2018-09-22T06:12:01.359Z,15.65
2018-09-22T06:13:01.339Z,15.95
2018-09-22T06:14:01.369Z,16.01
2018-09-22T06:15:01.382Z,16.38
2018-09-22T06:16:01.394Z,16.20
2018-09-22T06:17:01.412Z,16.33
2018-09-22T06:18:01.441Z,16.13
2018-09-22T06:19:01.456Z,16.02
2018-09-22T06:20:01.472Z,15.95
2018-09-22T06:21:01.490Z,16.16
2018-09-22T06:22:01.511Z,16.10
2018-09-22T06:23:01.579Z,16.20
2018-09-22T06:24:01.541Z,16.43
2018-09-22T06:25:01.567Z,16.43
2018-09-22T06:26:01.587Z,16.65
2018-09-22T06:27:01.620Z,16.74
2018-09-22T06:28:01.618Z,16.68
2018-09-22T06:29:01.637Z,16.64
2018-09-22T06:30:01.655Z,16.43
2018-09-22T06:31:01.672Z,16.33
2018-09-22T06:32:01.690Z,16.28
2018-09-22T06:33:01.723Z,15.86
2018-09-22T06:34:01.741Z,16.12
2018-09-22T06:35:01.759Z,15.79
2018-09-22T06:36:01.765Z,15.83
2018-09-22T06:37:01.792Z,15.92
2018-09-22T06:38:01.821Z,15.80
2018-09-22T06:39:01.834Z,15.86
2018-09-22T06:40:01.846Z,15.77
2018-09-22T06:41:01.873Z,15.70
2018-09-22T06:42:01.884Z,15.80
2018-09-22T06:43:01.902Z,15.86
2018-09-22T06:44:01.962Z,16.02
2018-09-22T06:45:01.938Z,15.94
2018-09-22T06:46:01.974Z,15.86
2018-09-22T06:47:01.978Z,16.12
2018-09-22T06:48:01.993Z,16.15
2018-09-22T06:49:02.010Z,16.29
2018-09-22T06:50:02.035Z,16.21
2018-09-22T06:51:02.056Z,16.08
2018-09-22T06:52:02.065Z,15.88
2018-09-22T06:53:02.081Z,16.04
2018-09-22T06:54:02.101Z,15.92
2018-09-22T06:55:02.129Z,15.83
2018-09-22T06:56:02.144Z,15.98
2018-09-22T06:57:02.167Z,15.83
2018-09-22T06:58:02.177Z,16.02
2018-09-22T06:59:02.195Z,16.13
2018-09-22T07:00:02.212Z,16.15
2018-09-22T07:01:02.234Z,16.12
2018-09-22T07:02:02.260Z,16.04
2018-09-22T07:03:02.275Z,15.77
2018-09-22T07:04:02.292Z,15.95
2018-09-22T07:05:02.325Z,15.92
2018-09-22T07:06:02.339Z,16.02
2018-09-22T07:07:02.346Z,16.28
2018-09-22T07:08:02.364Z,16.35
2018-09-22T07:09:02.382Z,16.32
2018-09-22T07:10:02.397Z,16.50
2018-09-22T07:11:02.422Z,16.65
2018-09-22T07:12:02.448Z,16.38
2018-09-22T07:13:02.456Z,16.36
2018-09-22T07:14:02.477Z,16.46
2018-09-22T07:15:02.499Z,16.69
2018-09-22T07:16:02.524Z,16.72
2018-09-22T07:17:02.528Z,16.61
2018-09-22T07:18:02.550Z,16.78
2018-09-22T07:19:02.563Z,17.02
2018-09-22T07:20:02.587Z,17.27
2018-09-22T07:21:02.611Z,17.59
2018-09-22T07:22:02.628Z,17.68
2018-09-22T07:23:02.640Z,17.36
2018-09-22T07:24:02.665Z,17.59
2018-09-22T07:25:02.680Z,17.44
2018-09-22T07:26:02.698Z,17.42
2018-09-22T07:27:02.717Z,17.74
2018-09-22T07:28:02.736Z,18.05
2018-09-22T07:29:02.764Z,17.97
2018-09-22T07:30:02.778Z,17.97
2018-09-22T07:31:02.796Z,18.16
2018-09-22T07:32:02.822Z,18.04
2018-09-22T07:33:02.844Z,18.26
2018-09-22T07:34:02.855Z,17.95
2018-09-22T07:35:02.875Z,18.10
2018-09-22T07:36:02.901Z,18.01
2018-09-22T07:37:02.911Z,18.08
2018-09-22T07:38:02.929Z,17.60
2018-09-22T07:39:02.951Z,17.49
2018-09-22T07:40:02.971Z,17.76
2018-09-22T07:41:02.988Z,17.92
2018-09-22T07:42:03.011Z,18.08
2018-09-22T07:43:03.031Z,18.18
2018-09-22T07:44:03.047Z,17.70
2018-09-22T07:45:03.067Z,17.36
2018-09-22T07:46:03.087Z,17.51
2018-09-22T07:47:03.115Z,17.78
2018-09-22T07:48:03.127Z,17.82
2018-09-22T07:49:03.141Z,17.44
2018-09-22T07:50:03.161Z,17.70
2018-09-22T07:51:03.190Z,17.78
2018-09-22T07:52:03.221Z,17.42
2018-09-22T07:53:03.228Z,17.48
2018-09-22T07:54:03.246Z,17.41
2018-09-22T07:55:03.271Z,17.27
2018-09-22T07:56:03.296Z,17.33
2018-09-22T07:57:03.319Z,17.48
2018-09-22T07:58:03.325Z,17.89
2018-09-22T07:59:03.338Z,17.87
2018-09-22T08:00:03.356Z,18.15
2018-09-22T08:01:03.384Z,18.18
2018-09-22T08:02:03.397Z,18.31
2018-09-22T08:03:03.417Z,18.22
2018-09-22T08:04:03.440Z,18.01
2018-09-22T08:05:03.459Z,18.50
2018-09-22T08:06:03.480Z,18.26
2018-09-22T08:07:03.500Z,18.08
2018-09-22T08:08:03.514Z,17.90
2018-09-22T08:09:03.530Z,17.80
2018-09-22T08:10:03.554Z,17.90
2018-09-22T08:11:03.576Z,17.94
2018-09-22T08:12:03.591Z,18.26
2018-09-22T08:13:03.617Z,18.29
2018-09-22T08:14:03.633Z,18.25
2018-09-22T08:15:03.654Z,18.26
2018-09-22T08:16:03.672Z,18.04
2018-09-22T08:17:03.695Z,18.28
2018-09-22T08:18:03.711Z,18.53
2018-09-22T08:19:03.729Z,18.58
2018-09-22T08:20:03.751Z,18.49
2018-09-22T08:21:03.779Z,18.55
2018-09-22T08:22:03.793Z,18.53
2018-09-22T08:23:03.814Z,18.63
2018-09-22T08:24:03.828Z,18.75
2018-09-22T08:25:03.852Z,18.62
2018-09-22T08:26:03.881Z,18.66
2018-09-22T08:27:03.892Z,18.80
2018-09-22T08:28:03.916Z,18.83
2018-09-22T08:29:03.934Z,19.12
2018-09-22T08:30:03.948Z,19.27
2018-09-22T08:31:03.965Z,19.33
2018-09-22T08:32:03.986Z,19.16
2018-09-22T08:33:04.008Z,19.00
2018-09-22T08:34:04.031Z,19.08
2018-09-22T08:35:04.048Z,18.86
2018-09-22T08:36:04.124Z,18.75
2018-09-22T08:37:04.478Z,18.92
2018-09-22T08:38:04.119Z,19.09
2018-09-22T08:39:04.136Z,18.89
2018-09-22T08:40:04.153Z,18.68
2018-09-22T08:41:04.171Z,18.83
2018-09-22T08:42:04.194Z,18.92
2018-09-22T08:43:04.207Z,19.14
2018-09-22T08:44:04.229Z,19.15
2018-09-22T08:45:04.257Z,18.84
2018-09-22T08:46:04.267Z,18.77
2018-09-22T08:47:04.290Z,18.59
2018-09-22T08:48:04.308Z,18.66
2018-09-22T08:49:04.333Z,18.78
2018-09-22T08:50:04.417Z,18.74
2018-09-22T08:51:04.409Z,18.90
2018-09-22T08:52:04.387Z,18.63
2018-09-22T08:53:04.410Z,18.44
2018-09-22T08:54:04.428Z,18.95
2018-09-22T08:55:04.450Z,18.84
2018-09-22T08:56:04.478Z,18.88
2018-09-22T08:57:04.506Z,18.62
2018-09-22T08:58:04.505Z,18.81
2018-09-22T08:59:04.537Z,19.07
2018-09-22T09:00:04.556Z,19.14
2018-09-22T09:01:04.579Z,19.56
2018-09-22T09:02:04.594Z,19.99
2018-09-22T09:03:04.614Z,20.02
2018-09-22T09:04:04.628Z,20.11
2018-09-22T09:05:04.674Z,20.07
2018-09-22T09:06:04.667Z,19.92
2018-09-22T09:07:04.692Z,19.62
2018-09-22T09:08:04.713Z,19.40
2018-09-22T09:09:04.728Z,19.56
2018-09-22T09:10:04.754Z,19.27
2018-09-22T09:11:04.776Z,19.36
2018-09-22T09:12:04.788Z,19.66
2018-09-22T09:13:04.853Z,19.89
2018-09-22T09:14:04.897Z,19.92
2018-09-22T09:15:04.920Z,19.74
2018-09-22T09:16:04.870Z,19.95
2018-09-22T09:17:04.899Z,20.13
2018-09-22T09:18:04.913Z,20.21
2018-09-22T09:19:04.941Z,20.10
2018-09-22T09:20:04.955Z,20.34
2018-09-22T09:21:04.975Z,20.48
2018-09-22T09:22:04.997Z,20.13
2018-09-22T09:23:05.013Z,20.09
2018-09-22T09:24:05.052Z,20.25
2018-09-22T09:25:05.062Z,19.47
2018-09-22T09:26:05.088Z,19.73
2018-09-22T09:27:05.097Z,19.86
2018-09-22T09:28:05.164Z,19.86
2018-09-22T09:29:05.145Z,19.95
2018-09-22T09:30:05.164Z,20.00
2018-09-22T09:31:05.185Z,19.86
2018-09-22T09:32:05.208Z,20.14
2018-09-22T09:33:05.221Z,20.09
2018-09-22T09:34:05.242Z,20.00
2018-09-22T09:35:05.262Z,19.95
2018-09-22T09:36:05.281Z,20.02
2018-09-22T09:37:05.304Z,20.09
2018-09-22T09:38:05.335Z,19.82
2018-09-22T09:39:05.354Z,19.58
2018-09-22T09:40:05.365Z,19.51
2018-09-22T09:41:05.392Z,19.55
2018-09-22T09:42:05.408Z,19.45
2018-09-22T09:43:05.426Z,19.69
2018-09-22T09:44:05.452Z,19.45
2018-09-22T09:45:05.468Z,19.56
2018-09-22T09:46:05.484Z,19.48
2018-09-22T09:47:05.512Z,19.64
2018-09-22T09:48:05.531Z,19.71
2018-09-22T09:49:05.551Z,19.48
2018-09-22T09:50:05.571Z,19.69
2018-09-22T09:51:05.588Z,19.45
2018-09-22T09:52:05.612Z,19.56
2018-09-22T09:53:05.631Z,19.31
2018-09-22T09:54:05.651Z,19.31
2018-09-22T09:55:05.671Z,19.19
2018-09-22T09:56:05.694Z,19.24
2018-09-22T09:57:05.715Z,19.51
2018-09-22T09:58:05.738Z,19.36
2018-09-22T09:59:05.754Z,19.36
2018-09-22T10:00:05.770Z,18.99
2018-09-22T10:01:05.795Z,18.80
2018-09-22T10:02:05.816Z,18.98
2018-09-22T10:03:05.837Z,19.31
2018-09-22T10:04:05.857Z,19.08
2018-09-22T10:05:05.870Z,19.55
2018-09-22T10:06:05.893Z,19.77
2018-09-22T10:07:05.914Z,19.51
2018-09-22T10:08:05.936Z,19.47
2018-09-22T10:09:05.955Z,19.63
2018-09-22T10:10:05.985Z,19.45
2018-09-22T10:11:06.008Z,19.82
2018-09-22T10:12:06.014Z,19.54
2018-09-22T10:13:06.039Z,19.64
2018-09-22T10:14:06.057Z,19.37
2018-09-22T10:15:06.079Z,19.19
2018-09-22T10:16:06.113Z,19.21
2018-09-22T10:17:06.113Z,19.33
2018-09-22T10:18:06.136Z,19.18
2018-09-22T10:19:06.155Z,19.18
2018-09-22T10:20:06.206Z,19.48
2018-09-22T10:21:06.198Z,19.71
2018-09-22T10:22:06.216Z,19.31
2018-09-22T10:23:06.233Z,19.36
2018-09-22T10:24:06.258Z,19.14
2018-09-22T10:25:06.272Z,18.88
2018-09-22T10:26:06.305Z,18.95
2018-09-22T10:27:06.318Z,19.15
2018-09-22T10:28:06.370Z,19.15
2018-09-22T10:29:06.356Z,19.00
2018-09-22T10:30:06.381Z,19.12
2018-09-22T10:31:06.399Z,19.19
2018-09-22T10:32:06.414Z,18.96
2018-09-22T10:33:06.441Z,18.90
2018-09-22T10:34:06.461Z,19.08
2018-09-22T10:35:06.482Z,19.14
2018-09-22T10:36:06.496Z,19.31
2018-09-22T10:37:06.522Z,19.29
2018-09-22T10:38:06.544Z,19.49
2018-09-22T10:39:06.563Z,19.54
2018-09-22T10:40:06.579Z,19.82
2018-09-22T10:41:06.604Z,19.84
2018-09-22T10:42:06.656Z,19.71
2018-09-22T10:43:06.640Z,19.62
2018-09-22T10:44:06.657Z,19.49
2018-09-22T10:45:06.688Z,19.36
2018-09-22T10:46:06.698Z,19.34
2018-09-22T10:47:06.732Z,19.54
2018-09-22T10:48:06.737Z,19.49
2018-09-22T10:49:06.771Z,19.76
2018-09-22T10:50:06.791Z,19.47
2018-09-22T10:51:06.797Z,19.36
2018-09-22T10:52:06.824Z,19.45
2018-09-22T10:53:06.874Z,19.62
2018-09-22T10:54:06.862Z,19.47
2018-09-22T10:55:06.893Z,19.48
2018-09-22T10:56:06.899Z,19.71
2018-09-22T10:57:06.923Z,19.59
2018-09-22T10:58:06.937Z,19.69
2018-09-22T10:59:06.969Z,19.95
2018-09-22T11:00:06.979Z,20.04
2018-09-22T11:01:07.006Z,19.88
2018-09-22T11:02:07.018Z,19.91
2018-09-22T11:03:07.040Z,19.96
2018-09-22T11:04:07.059Z,19.71
2018-09-22T11:05:07.081Z,19.79
2018-09-22T11:06:07.101Z,19.92
2018-09-22T11:07:07.119Z,19.64
2018-09-22T11:08:07.139Z,19.77
2018-09-22T11:09:07.162Z,19.73
2018-09-22T11:10:07.191Z,19.77
2018-09-22T11:11:07.204Z,19.86
2018-09-22T11:12:07.223Z,20.09
2018-09-22T11:13:07.248Z,20.22
2018-09-22T11:14:07.266Z,20.25
2018-09-22T11:15:07.288Z,20.21
2018-09-22T11:16:07.308Z,20.06
2018-09-22T11:17:07.324Z,20.13
2018-09-22T11:18:07.346Z,20.22
2018-09-22T11:19:07.366Z,20.02
2018-09-22T11:20:07.387Z,19.92
2018-09-22T11:21:07.406Z,20.10
2018-09-22T11:22:07.428Z,20.43
2018-09-22T11:23:07.454Z,20.70
2018-09-22T11:24:07.469Z,20.97
2018-09-22T11:25:07.491Z,20.77
2018-09-22T11:26:07.521Z,20.69
2018-09-22T11:27:07.535Z,20.40
2018-09-22T11:28:07.555Z,20.18
2018-09-22T11:29:07.578Z,19.95
2018-09-22T11:30:07.592Z,19.85
2018-09-22T11:31:07.614Z,19.88
2018-09-22T11:32:07.636Z,19.84
2018-09-22T11:33:07.653Z,19.74
2018-09-22T11:34:07.682Z,19.86
2018-09-22T11:35:07.694Z,20.14
2018-09-22T11:36:07.735Z,20.58
2018-09-22T11:37:07.736Z,20.48
2018-09-22T11:38:07.774Z,20.41
2018-09-22T11:39:07.774Z,20.39
2018-09-22T11:40:07.806Z,20.67
2018-09-22T11:41:07.819Z,20.78
2018-09-22T11:42:07.845Z,20.67
2018-09-22T11:43:07.868Z,20.59
2018-09-22T11:44:07.883Z,20.37
2018-09-22T11:45:07.919Z,20.48
2018-09-22T11:46:07.939Z,20.59
2018-09-22T11:47:07.940Z,20.40
2018-09-22T11:48:07.963Z,19.91
2018-09-22T11:49:07.980Z,19.66
2018-09-22T11:50:08.003Z,19.71
2018-09-22T11:51:08.059Z,19.73
2018-09-22T11:52:08.047Z,19.36
2018-09-22T11:53:08.079Z,19.48
2018-09-22T11:54:08.083Z,19.55
2018-09-22T11:55:08.140Z,19.70
2018-09-22T11:56:08.125Z,19.79
2018-09-22T11:57:08.139Z,19.81
2018-09-22T11:58:08.168Z,19.89
2018-09-22T11:59:08.189Z,19.92
2018-09-22T12:00:08.208Z,20.32
2018-09-22T12:01:08.227Z,20.52
2018-09-22T12:02:08.249Z,20.40
2018-09-22T12:03:08.264Z,20.56
2018-09-22T12:04:08.287Z,20.55
2018-09-22T12:05:08.310Z,20.29
2018-09-22T12:06:08.365Z,20.39
2018-09-22T12:07:08.347Z,20.39
2018-09-22T12:08:08.374Z,20.60
2018-09-22T12:09:08.387Z,20.93
2018-09-22T12:10:08.414Z,20.90
2018-09-22T12:11:08.431Z,20.77
2018-09-22T12:12:08.454Z,20.85
2018-09-22T12:13:08.472Z,21.17
2018-09-22T12:14:08.632Z,21.32
2018-09-22T12:15:08.517Z,21.17
2018-09-22T12:16:08.540Z,20.97
2018-09-22T12:17:08.559Z,21.02
2018-09-22T12:18:08.572Z,20.80
2018-09-22T12:19:08.603Z,20.58
2018-09-22T12:20:08.619Z,20.87
2018-09-22T12:21:08.650Z,20.39
2018-09-22T12:22:08.664Z,20.69
2018-09-22T12:23:08.676Z,20.88
2018-09-22T12:24:08.713Z,20.97
2018-09-22T12:25:08.730Z,21.05
2018-09-22T12:26:08.739Z,21.12
2018-09-22T12:27:08.759Z,21.51
2018-09-22T12:28:08.785Z,21.39
2018-09-22T12:29:08.812Z,21.45
2018-09-22T12:30:08.831Z,21.52
2018-09-22T12:31:08.844Z,21.14
2018-09-22T12:32:08.871Z,20.77
2018-09-22T12:33:08.884Z,20.75
2018-09-22T12:34:08.917Z,20.75
2018-09-22T12:35:08.924Z,20.99
2018-09-22T12:36:08.944Z,21.14
2018-09-22T12:37:08.976Z,21.09
2018-09-22T12:38:08.991Z,21.24
2018-09-22T12:39:09.010Z,21.00
2018-09-22T12:40:09.027Z,20.69
2018-09-22T12:41:09.056Z,20.69
2018-09-22T12:42:09.078Z,20.62
2018-09-22T12:43:09.101Z,20.70
2018-09-22T12:44:09.118Z,20.40
2018-09-22T12:45:09.134Z,20.58
2018-09-22T12:46:09.208Z,20.78
2018-09-22T12:47:09.190Z,20.66
2018-09-22T12:48:09.198Z,20.88
2018-09-22T12:49:09.218Z,20.69
2018-09-22T12:50:09.239Z,20.66
2018-09-22T12:51:09.267Z,20.70
2018-09-22T12:52:09.299Z,20.88
2018-09-22T12:53:09.310Z,20.92